Time;durP1;ratioP1;P1;durP2;ratioP2;P2;SDS_P1;SDS_P2;PMS_P1;PMS_P2;Temp;Humidity;BMP_temperature;BMP_pressure;BME280_temperature;BME280_humidity;BME280_pressure;Samples;Min_cycle;Max_cycle;Signal;HPM_P1;HPM_P2
2022/11/23 00:01:26;;;;;;;23.23;15.03;;;5.80;1.00;;;;;;4965338;28;20989;-64
2022/11/23 00:03:54;;;;;;;23.60;15.47;;;5.90;1.00;;;;;;4968794;28;20786;-62
2022/11/23 00:06:21;;;;;;;25.40;15.37;;;5.80;1.00;;;;;;4973010;28;20458;-64
2022/11/23 00:08:47;;;;;;;30.10;16.33;;;5.70;1.00;;;;;;4971133;28;20438;-64
2022/11/23 00:11:13;;;;;;;25.00;14.80;;;5.70;1.00;;;;;;4973181;28;20477;-63
2022/11/23 00:13:39;;;;;;;24.80;15.30;;;5.70;1.00;;;;;;4966911;28;20453;-63
2022/11/23 00:16:06;;;;;;;26.93;15.73;;;5.70;1.00;;;;;;4971345;28;20449;-64
2022/11/23 00:18:32;;;;;;;24.43;15.07;;;5.70;1.00;;;;;;4970351;28;20445;-63
2022/11/23 00:20:57;;;;;;;24.13;15.40;;;6.00;1.00;;;;;;4972588;28;20423;-64
2022/11/23 00:23:23;;;;;;;24.27;15.73;;;;;;;;;;4969265;28;20212;-63
2022/11/23 00:25:49;;;;;;;23.07;14.23;;;5.70;1.00;;;;;;4968106;28;20193;-64
2022/11/23 00:28:14;;;;;;;21.37;14.23;;;6.00;1.00;;;;;;4967347;28;21029;-63
2022/11/23 00:30:40;;;;;;;28.27;16.30;;;;;;;;;;4972100;28;20200;-63
2022/11/23 00:33:06;;;;;;;25.20;16.27;;;;;;;;;;4965745;28;20633;-62
2022/11/23 00:35:32;;;;;;;26.30;16.20;;;5.60;1.00;;;;;;4968853;28;20434;-63
2022/11/23 00:37:58;;;;;;;21.60;14.13;;;;;;;;;;4967763;28;20461;-63
2022/11/23 00:40:24;;;;;;;23.17;15.17;;;;;;;;;;4969465;28;20193;-63
2022/11/23 00:42:49;;;;;;;24.10;14.40;;;5.60;1.00;;;;;;4970076;28;20539;-63
2022/11/23 00:45:15;;;;;;;25.40;14.77;;;5.60;1.00;;;;;;4966203;28;20471;-61
2022/11/23 00:47:41;;;;;;;24.93;16.30;;;;;;;;;;4965227;28;20286;-64
2022/11/23 00:50:08;;;;;;;22.20;14.93;;;5.70;1.00;;;;;;4972760;28;20544;-63
2022/11/23 00:52:33;;;;;;;25.43;15.70;;;5.60;1.00;;;;;;4967717;28;20447;-63
2022/11/23 00:54:59;;;;;;;23.73;15.30;;;5.60;1.00;;;;;;4971623;28;20430;-63
2022/11/23 00:57:25;;;;;;;20.37;15.10;;;5.50;1.00;;;;;;4969212;28;20476;-63
2022/11/23 00:59:50;;;;;;;26.20;14.57;;;5.50;1.00;;;;;;4966330;28;20600;-63
2022/11/23 01:02:16;;;;;;;25.03;15.00;;;5.50;1.00;;;;;;4968857;28;20206;-63
2022/11/23 01:04:42;;;;;;;25.63;15.37;;;;;;;;;;4968657;28;20203;-64
2022/11/23 01:07:07;;;;;;;24.40;15.90;;;5.50;1.00;;;;;;4964636;28;20247;-64
2022/11/23 01:09:33;;;;;;;23.97;13.30;;;5.60;1.00;;;;;;4967814;28;20465;-64
2022/11/23 01:11:59;;;;;;;26.27;14.70;;;5.50;1.00;;;;;;4971091;28;20201;-64
2022/11/23 01:14:24;;;;;;;23.17;14.70;;;5.40;1.00;;;;;;4970978;28;20189;-64
2022/11/23 01:16:50;;;;;;;25.13;14.50;;;5.40;1.00;;;;;;4964710;28;20216;-64
2022/11/23 01:19:18;;;;;;;24.67;15.37;;;5.40;1.00;;;;;;4963318;28;20198;-64
2022/11/23 01:21:44;;;;;;;26.47;14.80;;;5.40;1.00;;;;;;4967747;28;20544;-64
2022/11/23 01:24:18;;;;;;;26.90;15.23;;;5.40;1.00;;;;;;4965268;28;20454;-63
2022/11/23 01:26:45;;;;;;;26.07;14.37;;;5.40;1.00;;;;;;4966950;28;20456;-63
2022/11/23 01:29:11;;;;;;;26.17;15.77;;;5.30;1.00;;;;;;4968280;28;20445;-63
2022/11/23 01:31:37;;;;;;;23.50;14.60;;;5.30;1.00;;;;;;4971593;28;20520;-63
2022/11/23 01:34:03;;;;;;;26.40;14.87;;;5.20;1.00;;;;;;4967784;28;21422;-62
2022/11/23 01:36:31;;;;;;;23.77;15.67;;;5.20;1.00;;;;;;4970899;28;20743;-64
2022/11/23 01:38:59;;;;;;;25.90;15.30;;;5.20;1.00;;;;;;4968217;28;20458;-64
2022/11/23 01:41:27;;;;;;;27.03;14.90;;;5.20;1.00;;;;;;4970046;28;20502;-64
2022/11/23 01:43:53;;;;;;;22.77;15.40;;;5.20;1.00;;;;;;4965595;28;20426;-63
2022/11/23 01:46:19;;;;;;;22.40;15.00;;;5.20;1.00;;;;;;4968927;28;20455;-63
2022/11/23 01:48:56;;;;;;;24.97;16.00;;;5.20;1.00;;;;;;4982248;28;20546;-63
2022/11/23 01:51:33;;;;;;;26.63;16.37;;;5.20;1.00;;;;;;4969768;28;20982;-62
2022/11/23 01:54:08;;;;;;;23.40;13.63;;;5.20;1.00;;;;;;4963457;28;20431;-63
2022/11/23 01:56:40;;;;;;;26.77;14.67;;;5.20;1.00;;;;;;4970589;28;20476;-63
2022/11/23 01:59:11;;;;;;;26.40;15.53;;;5.10;1.00;;;;;;4967270;28;21117;-63
2022/11/23 02:01:37;;;;;;;22.97;13.70;;;;;;;;;;4965243;28;20424;-62
2022/11/23 02:04:02;;;;;;;24.53;14.73;;;5.10;1.00;;;;;;4965145;28;21025;-62
2022/11/23 02:06:30;;;;;;;27.37;16.00;;;5.20;1.00;;;;;;4963567;28;20447;-63
2022/11/23 02:08:56;;;;;;;24.90;14.00;;;5.10;1.00;;;;;;4966162;28;20537;-63
2022/11/23 02:11:22;;;;;;;23.27;15.63;;;5.10;1.00;;;;;;4968962;28;20562;-65
2022/11/23 02:13:50;;;;;;;20.90;14.10;;;5.10;1.00;;;;;;4964397;28;20448;-63
2022/11/23 02:16:16;;;;;;;23.57;14.03;;;4.90;1.00;;;;;;4968351;28;20200;-63
2022/11/23 02:18:45;;;;;;;25.60;15.57;;;5.10;1.00;;;;;;4967255;28;20770;-64
2022/11/23 02:21:11;;;;;;;22.93;14.60;;;5.10;1.00;;;;;;4971152;28;20990;-63
2022/11/23 02:24:11;;;;;;;22.90;13.63;;;5.10;1.00;;;;;;4966145;28;20526;-63
2022/11/23 02:26:37;;;;;;;24.70;14.13;;;5.10;1.00;;;;;;4960609;28;20655;-62
2022/11/23 02:29:17;;;;;;;25.50;14.77;;;5.00;1.00;;;;;;4962507;28;20893;-64
2022/11/23 02:31:43;;;;;;;24.47;15.33;;;5.10;1.00;;;;;;4968429;28;20484;-63
2022/11/23 02:34:08;;;;;;;23.97;15.10;;;5.10;1.00;;;;;;4964764;28;20544;-63
2022/11/23 02:36:40;;;;;;;22.93;13.47;;;5.10;1.00;;;;;;4966496;28;20670;-64
2022/11/23 02:39:26;;;;;;;24.10;14.67;;;5.10;1.00;;;;;;4967939;28;20315;-64
2022/11/23 02:41:53;;;;;;;25.23;14.33;;;5.10;1.00;;;;;;4964642;28;20449;-64
2022/11/23 02:44:47;;;;;;;25.20;15.53;;;5.10;1.00;;;;;;4969790;28;20485;-62
2022/11/23 02:47:12;;;;;;;25.70;14.40;;;5.10;1.00;;;;;;4964861;28;20457;-65
2022/11/23 02:49:40;;;;;;;25.33;15.27;;;5.10;1.00;;;;;;4965614;28;20448;-62
2022/11/23 02:52:06;;;;;;;28.27;15.90;;;;;;;;;;4969031;28;20669;-64
2022/11/23 02:54:32;;;;;;;27.20;15.70;;;5.00;1.00;;;;;;4968530;28;20510;-64
2022/11/23 02:56:58;;;;;;;26.50;14.60;;;;;;;;;;4967893;28;20515;-62
2022/11/23 02:59:24;;;;;;;25.40;14.70;;;5.20;1.00;;;;;;4958650;28;20491;-64
2022/11/23 03:01:50;;;;;;;25.40;15.70;;;5.20;1.00;;;;;;4965643;28;20867;-64
2022/11/23 03:04:16;;;;;;;25.30;16.13;;;;;;;;;;4968288;28;20191;-65
2022/11/23 03:06:42;;;;;;;30.80;15.97;;;5.30;1.00;;;;;;4965558;28;20442;-64
2022/11/23 03:09:08;;;;;;;25.23;15.00;;;5.20;1.00;;;;;;4967355;28;20444;-64
2022/11/23 03:11:33;;;;;;;25.13;14.90;;;5.30;1.00;;;;;;4969018;28;20193;-64
2022/11/23 03:13:59;;;;;;;26.27;14.87;;;5.30;1.00;;;;;;4966504;28;20190;-63
2022/11/23 03:16:25;;;;;;;23.93;13.70;;;5.30;1.00;;;;;;4969017;28;20614;-64
2022/11/23 03:18:51;;;;;;;25.63;14.43;;;5.30;1.00;;;;;;4966916;28;20544;-64
2022/11/23 03:21:17;;;;;;;25.57;14.60;;;5.30;1.00;;;;;;4965429;28;20194;-63
2022/11/23 03:23:43;;;;;;;24.60;14.87;;;5.40;1.00;;;;;;4967952;28;20455;-63
2022/11/23 03:26:08;;;;;;;22.83;14.07;;;5.40;1.00;;;;;;4971322;28;20189;-64
2022/11/23 03:28:34;;;;;;;22.93;13.70;;;5.40;1.00;;;;;;4965316;28;20808;-64
2022/11/23 03:31:00;;;;;;;25.87;15.40;;;5.40;1.00;;;;;;4971084;28;20227;-62
2022/11/23 03:33:25;;;;;;;28.60;16.17;;;5.40;1.00;;;;;;4970864;28;20194;-63
2022/11/23 03:35:51;;;;;;;23.47;13.87;;;5.30;1.00;;;;;;4973086;28;20193;-63
2022/11/23 03:38:16;;;;;;;28.20;14.90;;;5.30;1.00;;;;;;4970920;28;20213;-66
2022/11/23 03:40:45;;;;;;;24.47;14.17;;;5.30;1.00;;;;;;4953186;28;20336;-65
2022/11/23 03:43:12;;;;;;;29.27;15.37;;;5.30;1.00;;;;;;4970287;28;20253;-66
2022/11/23 03:45:37;;;;;;;24.00;14.43;;;5.30;1.00;;;;;;4968547;28;20443;-63
2022/11/23 03:48:04;;;;;;;26.57;15.77;;;5.30;1.00;;;;;;4968348;28;20544;-63
2022/11/23 03:50:29;;;;;;;25.03;14.70;;;5.40;1.00;;;;;;4970988;28;20198;-61
2022/11/23 03:52:56;;;;;;;24.50;13.80;;;5.30;1.00;;;;;;4969865;28;20891;-64
2022/11/23 03:55:21;;;;;;;27.07;16.10;;;5.40;1.00;;;;;;4970618;28;20707;-64
2022/11/23 03:57:48;;;;;;;29.47;16.77;;;5.30;1.00;;;;;;4971490;28;20534;-65
2022/11/23 04:00:14;;;;;;;24.87;14.23;;;5.30;1.00;;;;;;4972581;28;20193;-64
2022/11/23 04:02:41;;;;;;;28.20;15.47;;;5.40;1.00;;;;;;4968348;28;20507;-65
2022/11/23 04:05:07;;;;;;;27.93;15.50;;;5.30;1.00;;;;;;4972071;28;20482;-64
2022/11/23 04:07:32;;;;;;;23.40;14.30;;;5.30;1.00;;;;;;4970610;28;20825;-63
2022/11/23 04:09:58;;;;;;;23.50;14.60;;;5.30;1.00;;;;;;4971686;28;20463;-64
2022/11/23 04:12:25;;;;;;;25.23;15.60;;;5.30;1.00;;;;;;4966307;28;20200;-64
2022/11/23 04:14:50;;;;;;;26.13;14.87;;;5.30;1.00;;;;;;4970910;28;20462;-63
2022/11/23 04:17:17;;;;;;;25.63;15.90;;;5.30;1.00;;;;;;4966081;28;20516;-63
2022/11/23 04:19:42;;;;;;;25.80;12.80;;;;;;;;;;4971651;28;20455;-63
2022/11/23 04:22:09;;;;;;;19.53;13.37;;;;;;;;;;4959244;28;20452;-62
2022/11/23 04:24:34;;;;;;;24.43;13.70;;;5.30;1.00;;;;;;4966220;28;20460;-64
2022/11/23 04:27:00;;;;;;;24.27;14.73;;;5.20;1.00;;;;;;4969720;28;20493;-64
2022/11/23 04:29:25;;;;;;;25.03;14.60;;;5.30;1.00;;;;;;4970392;28;20270;-62
2022/11/23 04:31:51;;;;;;;24.60;14.40;;;5.30;1.00;;;;;;4967238;28;20228;-63
2022/11/23 04:34:17;;;;;;;27.70;16.33;;;5.30;1.00;;;;;;4969155;28;20224;-63
2022/11/23 04:36:42;;;;;;;22.20;13.53;;;5.20;1.00;;;;;;4968422;28;20705;-63
2022/11/23 04:39:11;;;;;;;24.03;14.27;;;5.30;1.00;;;;;;4969182;28;20468;-63
2022/11/23 04:41:37;;;;;;;24.60;14.17;;;5.30;1.00;;;;;;4967392;28;20250;-63
2022/11/23 04:44:05;;;;;;;23.13;13.93;;;5.30;1.00;;;;;;4968735;28;20465;-64
2022/11/23 04:46:31;;;;;;;23.33;13.90;;;;;;;;;;4965684;28;20461;-63
2022/11/23 04:48:57;;;;;;;25.10;15.33;;;5.40;1.00;;;;;;4970374;28;20471;-63
2022/11/23 04:51:23;;;;;;;26.80;13.93;;;5.30;1.00;;;;;;4970280;28;20534;-64
2022/11/23 04:53:48;;;;;;;36.30;16.90;;;5.30;1.00;;;;;;4971648;28;20277;-63
2022/11/23 04:56:14;;;;;;;28.87;15.30;;;;;;;;;;4966249;28;20466;-64
2022/11/23 04:58:41;;;;;;;27.13;14.80;;;5.30;1.00;;;;;;4963799;28;20776;-64
2022/11/23 05:01:07;;;;;;;20.97;13.60;;;5.20;1.00;;;;;;4964343;28;20467;-63
2022/11/23 05:03:35;;;;;;;23.90;14.27;;;5.20;1.00;;;;;;4969660;28;20468;-63
2022/11/23 05:06:03;;;;;;;25.23;14.77;;;5.20;1.00;;;;;;4966021;28;20992;-63
2022/11/23 05:08:29;;;;;;;26.60;14.03;;;5.20;1.00;;;;;;4966936;28;20456;-62
2022/11/23 05:10:56;;;;;;;26.77;14.43;;;5.20;1.00;;;;;;4970515;28;20427;-63
2022/11/23 05:13:22;;;;;;;27.17;14.50;;;5.20;1.00;;;;;;4968771;28;20503;-62
2022/11/23 05:15:47;;;;;;;28.10;15.53;;;5.10;1.00;;;;;;4966583;28;20455;-63
2022/11/23 05:18:13;;;;;;;24.17;14.87;;;;;;;;;;4956374;28;20912;-62
2022/11/23 05:20:39;;;;;;;26.40;14.50;;;5.20;1.00;;;;;;4950350;28;20235;-62
2022/11/23 05:23:05;;;;;;;22.97;14.20;;;5.10;1.00;;;;;;4949620;28;20861;-62
2022/11/23 05:25:31;;;;;;;25.07;13.47;;;5.00;1.00;;;;;;4971318;28;20698;-63
2022/11/23 05:27:57;;;;;;;26.47;15.10;;;;;;;;;;4969649;28;20448;-63
2022/11/23 05:30:23;;;;;;;29.87;15.53;;;;;;;;;;4968700;28;20468;-64
2022/11/23 05:32:49;;;;;;;25.90;14.10;;;5.00;1.00;;;;;;4969868;28;21037;-62
2022/11/23 05:35:15;;;;;;;22.90;14.03;;;5.10;1.00;;;;;;4970186;28;20527;-63
2022/11/23 05:37:41;;;;;;;28.83;15.73;;;5.20;1.00;;;;;;4967972;28;20276;-63
2022/11/23 05:40:07;;;;;;;31.80;16.07;;;5.30;1.00;;;;;;4969141;28;20465;-62
2022/11/23 05:42:33;;;;;;;25.40;15.07;;;;;;;;;;4969056;28;20828;-64
2022/11/23 05:44:59;;;;;;;30.73;17.20;;;5.10;1.00;;;;;;4969627;28;20481;-62
2022/11/23 05:47:25;;;;;;;27.03;16.53;;;5.20;1.00;;;;;;4969853;28;20540;-62
2022/11/23 05:49:50;;;;;;;30.50;15.77;;;5.20;1.00;;;;;;4969034;28;20281;-64
2022/11/23 05:52:16;;;;;;;29.77;15.70;;;5.20;1.00;;;;;;4967762;28;20200;-63
2022/11/23 05:54:42;;;;;;;29.70;16.13;;;5.10;1.00;;;;;;4970377;28;20209;-64
2022/11/23 05:57:08;;;;;;;27.40;16.17;;;5.10;1.00;;;;;;4966813;28;21001;-63
2022/11/23 05:59:34;;;;;;;27.47;15.93;;;5.10;1.00;;;;;;4967033;28;20468;-64
2022/11/23 06:02:00;;;;;;;32.40;16.77;;;5.20;1.00;;;;;;4969287;28;20445;-63
2022/11/23 06:04:26;;;;;;;27.57;16.40;;;5.10;1.00;;;;;;4968582;28;20458;-63
2022/11/23 06:06:53;;;;;;;29.60;15.27;;;5.10;1.00;;;;;;4967646;28;20287;-62
2022/11/23 06:09:19;;;;;;;33.70;16.53;;;5.10;1.00;;;;;;4967837;28;20284;-65
2022/11/23 06:11:47;;;;;;;27.03;16.37;;;5.10;1.00;;;;;;4967523;28;20493;-63
2022/11/23 06:14:13;;;;;;;32.03;16.50;;;5.10;1.00;;;;;;4967583;28;20563;-63
2022/11/23 06:16:38;;;;;;;25.23;16.53;;;5.20;1.00;;;;;;4968833;28;20461;-64
2022/11/23 06:19:04;;;;;;;24.17;15.03;;;5.20;1.00;;;;;;4969577;28;20420;-64
2022/11/23 06:21:30;;;;;;;23.80;16.17;;;5.10;1.00;;;;;;4967019;28;20220;-63
2022/11/23 06:23:55;;;;;;;26.70;15.20;;;5.20;1.00;;;;;;4968568;28;20199;-65
2022/11/23 06:26:21;;;;;;;25.13;16.10;;;5.20;1.00;;;;;;4965799;28;20277;-64
2022/11/23 06:28:47;;;;;;;26.73;15.30;;;5.20;1.00;;;;;;4969976;28;20227;-64
2022/11/23 06:31:12;;;;;;;29.03;15.67;;;5.20;1.00;;;;;;4966753;28;20278;-63
2022/11/23 06:33:38;;;;;;;28.77;18.13;;;5.20;1.00;;;;;;4969805;28;20188;-63
2022/11/23 06:36:04;;;;;;;29.53;16.03;;;5.20;1.00;;;;;;4969058;28;20257;-63
2022/11/23 06:38:29;;;;;;;29.80;17.07;;;5.20;1.00;;;;;;4969366;28;20672;-63
2022/11/23 06:40:59;;;;;;;27.27;16.40;;;5.20;1.00;;;;;;4969565;28;20451;-64
2022/11/23 06:43:25;;;;;;;26.50;17.00;;;5.30;1.00;;;;;;4969017;28;20209;-63
2022/11/23 06:45:51;;;;;;;32.17;16.80;;;;;;;;;;4969882;28;20854;-63
2022/11/23 06:48:16;;;;;;;27.17;15.67;;;5.40;1.00;;;;;;4970122;28;20519;-63
2022/11/23 06:50:42;;;;;;;27.37;17.37;;;;;;;;;;4969152;28;20461;-63
2022/11/23 06:53:11;;;;;;;29.10;17.50;;;5.30;1.00;;;;;;4970220;28;20213;-64
2022/11/23 06:55:37;;;;;;;29.90;16.93;;;5.30;1.00;;;;;;4970477;28;20448;-64
2022/11/23 06:58:03;;;;;;;24.53;15.70;;;5.30;1.00;;;;;;4968939;28;20472;-63
2022/11/23 07:00:28;;;;;;;28.00;16.03;;;5.30;1.00;;;;;;4969512;28;20484;-62
2022/11/23 07:02:55;;;;;;;26.87;16.40;;;5.30;1.00;;;;;;4972823;28;20452;-64
2022/11/23 07:05:21;;;;;;;29.47;16.90;;;;;;;;;;4974345;28;20185;-64
2022/11/23 07:07:47;;;;;;;31.53;16.20;;;5.30;1.00;;;;;;4974233;28;20966;-64
2022/11/23 07:10:12;;;;;;;25.70;16.87;;;5.40;1.00;;;;;;4972642;28;20488;-64
2022/11/23 07:12:38;;;;;;;29.13;16.07;;;5.50;1.00;;;;;;4971779;28;20197;-64
2022/11/23 07:15:04;;;;;;;27.13;16.60;;;5.50;1.00;;;;;;4972728;28;20603;-63
2022/11/23 07:17:30;;;;;;;26.70;16.07;;;5.50;1.00;;;;;;4972180;28;20718;-64
2022/11/23 07:19:55;;;;;;;29.03;17.70;;;5.60;1.00;;;;;;4971726;28;20502;-65
2022/11/23 07:22:21;;;;;;;25.33;15.80;;;5.60;1.00;;;;;;4974158;28;20217;-65
2022/11/23 07:24:47;;;;;;;25.47;15.70;;;;;;;;;;4971406;28;20204;-62
2022/11/23 07:27:13;;;;;;;27.30;16.40;;;5.60;1.00;;;;;;4973683;28;20532;-65
2022/11/23 07:29:38;;;;;;;31.10;18.33;;;5.50;1.00;;;;;;4974053;28;20427;-63
2022/11/23 07:32:06;;;;;;;28.67;16.77;;;5.60;1.00;;;;;;4972697;28;20777;-64
2022/11/23 07:34:31;;;;;;;25.30;15.97;;;5.60;1.00;;;;;;4972490;28;20208;-63
2022/11/23 07:36:57;;;;;;;28.03;16.43;;;;;;;;;;4973591;28;20473;-63
2022/11/23 07:39:23;;;;;;;28.23;17.20;;;5.60;1.00;;;;;;4972398;28;20184;-64
2022/11/23 07:41:48;;;;;;;27.30;16.17;;;5.60;1.00;;;;;;4972611;28;20441;-64
2022/11/23 07:44:14;;;;;;;30.13;17.53;;;5.60;1.00;;;;;;4973482;28;20193;-62
2022/11/23 07:46:39;;;;;;;27.90;17.03;;;5.60;1.00;;;;;;4973750;28;20189;-63
2022/11/23 07:49:05;;;;;;;30.20;16.73;;;;;;;;;;4973003;28;20283;-63
2022/11/23 07:51:31;;;;;;;32.97;18.37;;;5.50;1.00;;;;;;4972794;28;20366;-63
2022/11/23 07:53:57;;;;;;;29.13;17.73;;;;;;;;;;4973688;28;20444;-64
2022/11/23 07:56:23;;;;;;;25.87;16.23;;;5.50;1.00;;;;;;4972748;28;20193;-64
2022/11/23 07:58:49;;;;;;;25.77;16.13;;;;;;;;;;4972515;28;20424;-63
2022/11/23 08:01:19;;;;;;;26.20;16.93;;;5.50;1.00;;;;;;4969779;28;20181;-63
2022/11/23 08:03:46;;;;;;;32.70;17.07;;;5.50;1.00;;;;;;4970901;28;20618;-63
2022/11/23 08:06:13;;;;;;;27.57;18.07;;;5.50;1.00;;;;;;4972753;28;20476;-64
2022/11/23 08:08:39;;;;;;;26.30;16.80;;;6.60;1.00;;;;;;4969761;28;20436;-65
2022/11/23 08:11:06;;;;;;;24.50;15.47;;;5.60;1.00;;;;;;4967047;28;20464;-64
2022/11/23 08:13:33;;;;;;;28.97;16.67;;;5.60;1.00;;;;;;4970205;28;20434;-63
2022/11/23 08:15:59;;;;;;;29.60;15.93;;;5.60;1.00;;;;;;4972030;28;20462;-63
2022/11/23 08:18:26;;;;;;;29.60;17.23;;;5.70;1.00;;;;;;4989729;28;20914;-63
2022/11/23 08:20:51;;;;;;;23.87;16.00;;;5.70;1.00;;;;;;4968010;28;20434;-62
2022/11/23 08:23:18;;;;;;;29.73;16.87;;;5.70;1.00;;;;;;4967565;28;20443;-63
2022/11/23 08:25:44;;;;;;;23.67;15.30;;;;;;;;;;4971906;28;21311;-63
2022/11/23 08:28:10;;;;;;;33.00;17.97;;;5.80;1.00;;;;;;4971221;28;20452;-63
2022/11/23 08:30:36;;;;;;;28.20;15.80;;;5.80;1.00;;;;;;4972344;28;20453;-63
2022/11/23 08:33:03;;;;;;;24.90;15.37;;;5.80;1.00;;;;;;4970057;28;20273;-58
2022/11/23 08:35:29;;;;;;;26.57;16.03;;;5.80;1.00;;;;;;4969970;28;20456;-63
2022/11/23 08:37:55;;;;;;;28.30;16.20;;;5.80;1.00;;;;;;4969366;28;20457;-63
2022/11/23 08:40:20;;;;;;;25.50;15.20;;;5.80;1.00;;;;;;4968718;28;20512;-61
2022/11/23 08:42:46;;;;;;;26.23;15.40;;;5.80;1.00;;;;;;4966092;28;20317;-61
2022/11/23 08:45:12;;;;;;;27.53;15.17;;;;;;;;;;4967556;28;20192;-63
2022/11/23 08:47:38;;;;;;;24.83;16.33;;;5.90;1.00;;;;;;4971482;28;20194;-62
2022/11/23 08:50:04;;;;;;;26.70;16.20;;;5.90;1.00;;;;;;4972517;28;20511;-62
2022/11/23 08:52:29;;;;;;;27.17;15.60;;;6.00;1.00;;;;;;4970901;28;20193;-63
2022/11/23 08:54:55;;;;;;;24.63;16.07;;;6.10;1.00;;;;;;4971886;28;20848;-63
2022/11/23 08:57:21;;;;;;;29.63;18.33;;;6.10;1.00;;;;;;4972072;28;20212;-60
2022/11/23 08:59:47;;;;;;;21.13;14.97;;;;;;;;;;4972127;28;20197;-62
2022/11/23 09:02:13;;;;;;;24.33;15.37;;;6.30;1.00;;;;;;4971845;28;20189;-62
2022/11/23 09:04:40;;;;;;;26.13;15.43;;;6.30;1.00;;;;;;4970670;28;20985;-63
2022/11/23 09:07:06;;;;;;;28.70;15.73;;;6.50;1.00;;;;;;4970832;28;20980;-61
2022/11/23 09:09:31;;;;;;;24.40;15.13;;;6.60;1.00;;;;;;4972139;28;20445;-63
2022/11/23 09:11:57;;;;;;;29.10;17.80;;;;;;;;;;4970801;28;20420;-63
2022/11/23 09:14:23;;;;;;;25.40;15.80;;;6.80;1.00;;;;;;4971961;28;20189;-62
2022/11/23 09:16:49;;;;;;;27.03;16.33;;;6.90;1.00;;;;;;4971989;28;20547;-62
2022/11/23 09:19:15;;;;;;;24.90;16.10;;;7.00;1.00;;;;;;4971755;28;20412;-63
2022/11/23 09:21:41;;;;;;;28.93;16.53;;;7.10;1.00;;;;;;4971458;28;20197;-62
2022/11/23 09:24:10;;;;;;;26.17;15.57;;;7.20;1.00;;;;;;4969364;28;20251;-63
2022/11/23 09:26:36;;;;;;;24.37;16.70;;;7.20;1.00;;;;;;4971464;28;20528;-63
2022/11/23 09:29:03;;;;;;;24.27;15.00;;;7.40;1.00;;;;;;4971927;28;20523;-62
2022/11/23 09:31:28;;;;;;;23.73;14.63;;;7.40;1.00;;;;;;4970738;28;20480;-63
2022/11/23 09:33:54;;;;;;;23.93;13.77;;;7.40;1.00;;;;;;4971827;28;20412;-64
2022/11/23 09:36:21;;;;;;;27.07;15.10;;;7.40;1.00;;;;;;4971734;28;20184;-61
2022/11/23 09:38:48;;;;;;;26.67;15.10;;;7.60;1.00;;;;;;4971488;28;20666;-63
2022/11/23 09:41:48;;;;;;;25.90;14.87;;;7.60;1.00;;;;;;4971238;28;20432;-64
2022/11/23 09:44:24;;;;;;;24.90;16.10;;;7.70;1.00;;;;;;4971899;28;20443;-62
2022/11/23 09:47:25;;;;;;;22.70;14.17;;;7.80;1.00;;;;;;4971637;28;20422;-62
2022/11/23 09:50:06;;;;;;;20.17;13.67;;;8.00;1.00;;;;;;4949345;29;20484;-62
2022/11/23 09:52:33;;;;;;;21.90;14.10;;;8.10;1.00;;;;;;4969040;28;20513;-63
2022/11/23 09:55:32;;;;;;;22.93;14.70;;;8.30;1.00;;;;;;5066747;28;20559;-64
2022/11/23 09:58:02;;;;;;;23.10;13.30;;;8.40;1.00;;;;;;5064579;28;20775;-64
2022/11/23 10:00:36;;;;;;;23.00;13.80;;;8.60;1.00;;;;;;5066768;28;20763;-63
2022/11/23 10:03:02;;;;;;;22.20;13.63;;;8.60;1.00;;;;;;5066816;28;20483;-65
2022/11/23 10:05:34;;;;;;;26.77;14.43;;;8.70;1.00;;;;;;5066538;28;20803;-66
2022/11/23 10:08:31;;;;;;;19.83;12.70;;;8.90;1.00;;;;;;5066526;28;20411;-64
2022/11/23 10:11:21;;;;;;;24.70;13.80;;;9.10;1.00;;;;;;5065934;28;20431;-63
2022/11/23 10:13:59;;;;;;;21.13;13.47;;;9.20;1.00;;;;;;5066390;28;20464;-64
2022/11/23 10:16:43;;;;;;;21.60;14.80;;;9.30;1.00;;;;;;5066390;28;20924;-63
2022/11/23 10:19:30;;;;;;;17.40;11.93;;;9.40;1.00;;;;;;5066396;28;20452;-63
2022/11/23 10:22:18;;;;;;;23.40;13.60;;;9.70;1.00;;;;;;5066112;28;20441;-64
2022/11/23 10:24:49;;;;;;;24.30;13.57;;;9.80;1.00;;;;;;5066141;28;20492;-63
2022/11/23 10:27:19;;;;;;;18.70;11.53;;;10.10;1.00;;;;;;5063379;28;20794;-63
2022/11/23 10:29:45;;;;;;;18.90;13.23;;;10.20;1.00;;;;;;5066415;28;20419;-63
2022/11/23 10:32:34;;;;;;;18.53;12.00;;;10.50;1.00;;;;;;5065987;28;20413;-63
2022/11/23 10:35:14;;;;;;;20.90;13.77;;;10.60;1.00;;;;;;5065794;28;20202;-63
2022/11/23 10:37:40;;;;;;;30.57;12.43;;;10.60;1.00;;;;;;5063335;28;20448;-63
2022/11/23 10:40:27;;;;;;;21.00;13.50;;;10.60;1.00;;;;;;5066322;28;20516;-64
2022/11/23 10:42:58;;;;;;;22.70;13.67;;;10.50;1.00;;;;;;5085906;28;20676;-63
2022/11/23 10:45:26;;;;;;;19.17;12.23;;;10.60;1.00;;;;;;5085913;28;20781;-63
2022/11/23 10:47:58;;;;;;;19.17;12.57;;;10.60;1.00;;;;;;5085956;28;20438;-64
2022/11/23 10:50:36;;;;;;;21.13;12.70;;;10.80;1.00;;;;;;5076073;28;20466;-64
2022/11/23 10:53:04;;;;;;;19.57;12.70;;;10.80;1.00;;;;;;5064412;28;20541;-63
2022/11/23 10:55:32;;;;;;;18.30;11.67;;;11.00;1.00;;;;;;5083840;28;20444;-63
2022/11/23 10:57:58;;;;;;;18.80;11.80;;;11.00;1.00;;;;;;5075642;28;20548;-63
2022/11/23 11:00:27;;;;;;;23.83;12.47;;;10.90;1.00;;;;;;5065513;28;20521;-64
2022/11/23 11:02:55;;;;;;;21.03;13.03;;;10.90;1.00;;;;;;5076886;28;20414;-63
2022/11/23 11:05:33;;;;;;;16.77;11.20;;;11.00;1.00;;;;;;5078318;28;20446;-63
2022/11/23 11:08:18;;;;;;;17.60;11.90;;;10.80;1.00;;;;;;5071854;28;20445;-63
2022/11/23 11:10:57;;;;;;;19.10;12.90;;;10.50;1.00;;;;;;5071898;28;20440;-63
2022/11/23 11:13:24;;;;;;;19.30;12.73;;;10.40;1.00;;;;;;5058044;28;20452;-63
2022/11/23 11:15:52;;;;;;;17.47;12.30;;;10.50;1.00;;;;;;5051852;28;20451;-63
2022/11/23 11:18:18;;;;;;;20.33;12.10;;;10.40;1.00;;;;;;5050735;28;20474;-63
2022/11/23 11:20:44;;;;;;;22.73;13.93;;;10.30;1.00;;;;;;5051867;28;20451;-63
2022/11/23 11:23:20;;;;;;;17.37;12.10;;;10.30;1.00;;;;;;5051489;28;20841;-63
2022/11/23 11:26:00;;;;;;;18.30;12.93;;;10.40;1.00;;;;;;5051606;28;20435;-64
2022/11/23 11:28:39;;;;;;;17.07;11.03;;;10.40;1.00;;;;;;5049670;28;20489;-64
2022/11/23 11:31:23;;;;;;;18.80;11.60;;;10.40;1.00;;;;;;5051730;28;20461;-62
2022/11/23 11:33:53;;;;;;;14.80;10.33;;;10.30;1.00;;;;;;5045246;28;20832;-64
2022/11/23 11:36:21;;;;;;;16.90;12.60;;;10.30;1.00;;;;;;5065832;28;20436;-64
2022/11/23 11:38:51;;;;;;;19.43;11.70;;;10.40;1.00;;;;;;5048706;28;20979;-63
2022/11/23 11:41:23;;;;;;;17.50;10.63;;;10.50;1.00;;;;;;5058679;28;20925;-64
2022/11/23 11:43:57;;;;;;;16.77;11.73;;;10.60;1.00;;;;;;5047891;28;20424;-62
2022/11/23 11:46:30;;;;;;;16.50;11.30;;;10.70;1.00;;;;;;5047675;28;20452;-63
2022/11/23 11:48:59;;;;;;;18.70;10.30;;;10.80;1.00;;;;;;5049740;28;20546;-63
2022/11/23 11:51:26;;;;;;;13.93;9.47;;;10.80;1.00;;;;;;5048274;28;20851;-64
2022/11/23 11:54:29;;;;;;;15.53;9.97;;;10.90;1.00;;;;;;5048414;28;20482;-65
2022/11/23 11:57:00;;;;;;;17.00;10.47;;;11.00;1.00;;;;;;5046772;28;20447;-64
2022/11/23 11:59:43;;;;;;;15.47;11.37;;;11.00;1.00;;;;;;5047272;28;20428;-65
2022/11/23 12:02:34;;;;;;;14.60;11.30;;;11.10;1.00;;;;;;5046445;28;20503;-65
2022/11/23 12:05:48;;;;;;;16.93;10.50;;;11.20;1.00;;;;;;5047029;28;20426;-63
2022/11/23 12:08:43;;;;;;;17.90;10.60;;;11.30;1.00;;;;;;5044911;28;20477;-64
2022/11/23 12:11:11;;;;;;;15.90;10.13;;;11.30;1.00;;;;;;5038538;28;21343;-64
2022/11/23 12:13:41;;;;;;;13.80;9.53;;;11.40;1.00;;;;;;5048187;28;20453;-62
2022/11/23 12:16:48;;;;;;;16.33;10.07;;;11.60;1.00;;;;;;5050215;28;20531;-63
2022/11/23 12:19:18;;;;;;;16.13;10.03;;;11.50;1.00;;;;;;5047027;28;20509;-62
2022/11/23 12:21:49;;;;;;;19.40;9.60;;;11.50;1.00;;;;;;5049366;28;20526;-63
2022/11/23 12:24:52;;;;;;;14.23;9.90;;;11.40;1.00;;;;;;5057061;28;20493;-64
2022/11/23 12:27:52;;;;;;;16.50;10.50;;;11.40;1.00;;;;;;5047570;28;21076;-65
2022/11/23 12:30:28;;;;;;;14.03;10.17;;;11.10;1.00;;;;;;5051020;28;20436;-64
2022/11/23 12:33:00;;;;;;;15.20;10.13;;;11.00;1.00;;;;;;5069208;28;20927;-65
2022/11/23 12:35:28;;;;;;;15.40;9.53;;;11.00;1.00;;;;;;5050118;28;20467;-65
2022/11/23 12:38:00;;;;;;;12.90;9.50;;;10.90;1.00;;;;;;5046077;28;20489;-65
2022/11/23 12:40:47;;;;;;;14.73;9.33;;;10.90;1.00;;;;;;5047599;28;20459;-65
2022/11/23 12:43:22;;;;;;;21.37;9.10;;;10.90;1.00;;;;;;5049597;28;20416;-65
2022/11/23 12:46:02;;;;;;;14.23;9.73;;;10.80;1.00;;;;;;5048915;28;20652;-66
2022/11/23 12:49:05;;;;;;;14.40;10.30;;;10.90;1.00;;;;;;5049979;28;20415;-64
2022/11/23 12:51:46;;;;;;;13.53;9.20;;;10.80;1.00;;;;;;5050136;28;20522;-66
2022/11/23 12:54:35;;;;;;;23.30;11.20;;;10.80;1.00;;;;;;5049699;28;20536;-65
2022/11/23 12:57:07;;;;;;;21.77;11.03;;;10.80;1.00;;;;;;5049394;28;20439;-65
2022/11/23 12:59:42;;;;;;;17.60;10.10;;;10.70;1.00;;;;;;5062145;28;20491;-64
2022/11/23 13:02:22;;;;;;;18.43;10.43;;;10.60;1.00;;;;;;5054555;28;20449;-64
2022/11/23 13:04:50;;;;;;;16.60;11.43;;;10.50;1.00;;;;;;5049754;28;20409;-65